Time;durP1;ratioP1;P1;durP2;ratioP2;P2;SDS_P1;SDS_P2;PMS_P1;PMS_P2;Temp;Humidity;BMP_temperature;BMP_pressure;BME280_temperature;BME280_humidity;BME280_pressure;Samples;Min_cycle;Max_cycle;Signal;HPM_P1;HPM_P2
2023/03/15 00:02:04;;;;;;;4.93;3.23;;;2.60;99.90;;;5.88;56.79;97226.66;5031083;28;20048;-45
2023/03/15 00:04:32;;;;;;;5.93;3.43;;;2.50;99.90;;;5.95;56.76;97240.13;5029981;28;20041;-50
2023/03/15 00:06:59;;;;;;;5.83;3.53;;;2.60;99.90;;;6.00;56.09;97240.59;5030392;28;20253;-47
2023/03/15 00:09:27;;;;;;;6.23;3.10;;;2.60;99.90;;;6.01;56.29;97250.16;5033914;28;20045;-47
2023/03/15 00:11:54;;;;;;;5.97;3.10;;;2.60;99.90;;;6.06;56.47;97251.41;5033552;28;20065;-48
2023/03/15 00:14:22;;;;;;;6.50;3.83;;;2.70;99.90;;;6.04;56.37;97256.00;5034963;28;20516;-47
2023/03/15 00:16:49;;;;;;;11.73;3.20;;;2.70;99.90;;;6.04;56.55;97252.53;5034616;28;20052;-50
2023/03/15 00:19:17;;;;;;;6.23;2.97;;;2.70;99.90;;;6.10;55.79;97260.72;5034630;28;20424;-51
2023/03/15 00:21:44;;;;;;;6.13;2.70;;;2.80;99.90;;;6.15;56.18;97262.13;5034628;28;20074;-47
2023/03/15 00:24:12;;;;;;;7.83;3.57;;;2.80;99.90;;;6.27;56.08;97274.19;5033416;28;20056;-46
2023/03/15 00:26:39;;;;;;;4.73;3.00;;;3.00;99.90;;;6.02;55.95;97271.16;5034091;28;20045;-47
2023/03/15 00:29:08;;;;;;;5.87;2.60;;;2.70;99.90;;;6.02;55.78;97268.53;5031122;28;20052;-44
2023/03/15 00:31:35;;;;;;;4.63;2.90;;;2.70;99.90;;;5.94;55.44;97268.38;5030892;28;20041;-51
2023/03/15 00:34:03;;;;;;;3.63;2.40;;;2.70;99.90;;;6.04;55.43;97271.84;5034694;28;20037;-47
2023/03/15 00:36:31;;;;;;;6.80;2.80;;;2.70;99.90;;;6.03;55.98;97275.50;5033593;28;20053;-45
2023/03/15 00:38:59;;;;;;;4.77;2.60;;;2.70;99.90;;;6.01;55.74;97287.16;5016375;28;20042;-50
2023/03/15 00:41:27;;;;;;;4.37;2.73;;;2.70;99.90;;;5.98;56.13;97284.81;5034221;28;20511;-45
2023/03/15 00:43:55;;;;;;;6.07;3.37;;;2.60;99.90;;;6.00;55.64;97293.44;5033223;28;20052;-49
2023/03/15 00:46:22;;;;;;;9.47;2.73;;;2.70;99.90;;;5.91;56.04;97292.44;5032008;28;20054;-46
2023/03/15 00:48:51;;;;;;;6.37;2.47;;;2.60;99.90;;;5.95;55.09;97299.13;5032782;28;20072;-47
2023/03/15 00:51:22;;;;;;;5.30;2.80;;;2.60;99.90;;;5.93;55.95;97301.03;5032867;28;20044;-47
2023/03/15 00:53:52;;;;;;;4.90;2.10;;;2.60;99.90;;;6.00;55.04;97302.19;5033185;28;20049;-50
2023/03/15 00:56:23;;;;;;;3.70;2.13;;;2.70;99.90;;;6.01;55.81;97313.59;5033183;28;20052;-46
2023/03/15 00:58:51;;;;;;;5.67;2.33;;;2.70;99.90;;;5.97;55.02;97312.19;5032328;28;20072;-47
2023/03/15 01:01:23;;;;;;;5.47;2.60;;;2.60;99.90;;;5.87;54.85;97320.09;5033256;28;20056;-48
2023/03/15 01:03:51;;;;;;;7.73;2.77;;;2.40;99.90;;;5.86;54.81;97314.00;5032920;28;20041;-50
2023/03/15 01:06:23;;;;;;;5.00;2.30;;;2.50;99.90;;;5.84;55.76;97321.22;5016117;28;20041;-48
2023/03/15 01:08:54;;;;;;;5.53;1.70;;;2.50;99.90;;;5.73;55.60;97314.25;5032691;28;20045;-49
2023/03/15 01:11:26;;;;;;;3.03;1.87;;;2.50;99.90;;;5.78;55.13;97320.94;5032669;28;20048;-47
2023/03/15 01:13:57;;;;;;;4.03;1.70;;;2.50;99.90;;;5.71;55.78;97320.66;5032869;28;20343;-45
2023/03/15 01:16:26;;;;;;;2.83;1.93;;;2.40;99.90;;;5.68;55.56;97316.50;5032393;28;20386;-49
2023/03/15 01:18:55;;;;;;;7.37;2.50;;;2.40;99.90;;;5.72;55.49;97319.72;5032472;28;20038;-49
2023/03/15 01:21:23;;;;;;;5.30;2.63;;;2.50;99.90;;;5.74;54.94;97328.31;5032487;28;20049;-51
2023/03/15 01:23:52;;;;;;;2.67;2.13;;;2.50;99.90;;;5.70;54.93;97327.75;5032688;28;20049;-48
2023/03/15 01:26:22;;;;;;;5.87;2.07;;;2.50;99.90;;;5.63;55.23;97329.28;5032650;28;20052;-50
2023/03/15 01:28:49;;;;;;;4.67;2.10;;;2.30;99.90;;;5.56;54.55;97325.50;5031486;28;20413;-49
2023/03/15 01:31:23;;;;;;;2.53;1.47;;;2.30;99.90;;;5.49;55.34;97333.16;5032775;28;20521;-47
2023/03/15 01:33:51;;;;;;;3.23;1.80;;;2.20;99.90;;;5.35;55.31;97332.72;5033583;28;20037;-50
2023/03/15 01:36:19;;;;;;;4.20;2.37;;;2.10;99.90;;;5.38;55.26;97330.63;5015558;28;20049;-50
2023/03/15 01:38:48;;;;;;;4.43;1.73;;;2.20;99.90;;;5.25;55.57;97333.53;5033314;28;20056;-46
2023/03/15 01:41:18;;;;;;;4.43;1.90;;;2.10;99.90;;;5.24;55.93;97334.50;5030254;28;20056;-48
2023/03/15 01:43:46;;;;;;;2.87;1.73;;;2.00;99.90;;;5.29;55.73;97342.00;5032461;28;20037;-47
2023/03/15 01:46:26;;;;;;;2.10;1.40;;;2.10;99.90;;;5.18;55.67;97348.25;5015964;28;20072;-44
2023/03/15 01:49:31;;;;;;;3.03;1.60;;;2.00;99.90;;;4.95;56.23;97350.25;5032381;28;20056;-49
2023/03/15 01:52:16;;;;;;;5.07;1.70;;;2.00;99.90;;;5.03;56.18;97350.41;5031696;28;20049;-47
2023/03/15 01:55:00;;;;;;;4.33;1.50;;;1.90;99.90;;;4.89;55.86;97356.06;5017265;28;20398;-47
2023/03/15 01:57:40;;;;;;;7.27;1.70;;;1.90;99.90;;;5.05;55.89;97359.03;5016227;28;20052;-46
2023/03/15 02:00:18;;;;;;;3.30;2.00;;;2.00;99.90;;;4.92;55.87;97359.28;5008301;28;20063;-49
2023/03/15 02:03:20;;;;;;;2.30;1.40;;;1.90;99.90;;;4.88;56.53;97360.47;5031913;28;20042;-48
2023/03/15 02:06:05;;;;;;;4.77;1.40;;;1.90;99.90;;;4.88;55.94;97363.13;5031389;28;20068;-48
2023/03/15 02:08:43;;;;;;;4.00;1.47;;;1.80;99.90;;;5.04;55.18;97361.78;5031916;28;20038;-49
2023/03/15 02:11:12;;;;;;;2.80;1.40;;;1.80;99.90;;;4.91;55.33;97364.69;5008112;28;20053;-48
2023/03/15 02:13:41;;;;;;;3.57;1.90;;;1.80;99.90;;;5.01;56.10;97375.25;5031485;28;20413;-51
2023/03/15 02:16:09;;;;;;;3.90;1.50;;;1.80;99.90;;;5.02;55.95;97380.41;5024254;28;20045;-51
2023/03/15 02:18:44;;;;;;;1.73;1.23;;;1.90;99.90;;;5.07;55.42;97369.44;5030751;28;20049;-52
2023/03/15 02:21:58;;;;;;;2.87;1.50;;;1.90;99.90;;;5.07;55.22;97362.34;5031444;28;20052;-47
2023/03/15 02:24:45;;;;;;;3.43;1.47;;;1.90;99.90;;;5.22;55.31;97370.75;5027074;28;20076;-52
2023/03/15 02:27:13;;;;;;;3.87;1.30;;;2.10;99.90;;;5.31;54.34;97371.72;5023817;28;20053;-50
2023/03/15 02:29:41;;;;;;;1.90;1.20;;;2.10;99.90;;;5.36;54.34;97379.28;5015665;28;20501;-49
2023/03/15 02:32:09;;;;;;;5.20;1.60;;;2.20;99.90;;;5.38;55.06;97382.59;5031366;28;20049;-45
2023/03/15 02:34:36;;;;;;;3.80;1.60;;;2.10;99.90;;;5.40;54.38;97392.06;5014753;28;20045;-46
2023/03/15 02:37:04;;;;;;;3.43;1.27;;;2.20;99.90;;;5.43;54.81;97385.66;5030859;28;20052;-46
2023/03/15 02:39:31;;;;;;;3.77;1.27;;;2.20;99.90;;;5.45;54.43;97399.59;5030575;28;20056;-48
2023/03/15 02:42:00;;;;;;;3.83;1.50;;;2.20;99.90;;;5.45;54.68;97394.31;5030836;28;20421;-48
2023/03/15 02:44:36;;;;;;;2.10;1.30;;;2.20;99.90;;;5.46;53.66;97401.25;5031079;28;20045;-50
2023/03/15 02:47:12;;;;;;;4.70;1.77;;;2.20;99.90;;;5.48;54.18;97404.56;5030028;28;20429;-48
2023/03/15 02:49:44;;;;;;;3.37;1.23;;;2.20;99.90;;;5.47;54.39;97416.97;5030973;28;20042;-49
2023/03/15 02:52:12;;;;;;;6.87;1.90;;;2.30;99.90;;;5.40;54.46;97420.25;5006415;28;20053;-52
2023/03/15 02:54:42;;;;;;;4.73;1.87;;;2.20;99.90;;;5.45;54.76;97424.19;5014411;28;20045;-48
2023/03/15 02:57:16;;;;;;;4.53;1.80;;;2.30;99.90;;;5.50;54.23;97429.88;5022423;28;20417;-47
2023/03/15 02:59:49;;;;;;;3.60;1.70;;;2.40;99.90;;;5.55;54.21;97433.94;5030515;28;20406;-50
2023/03/15 03:02:17;;;;;;;3.77;1.37;;;2.40;99.90;;;5.57;53.98;97442.56;5030436;28;20080;-50
2023/03/15 03:04:45;;;;;;;4.53;1.63;;;2.40;99.90;;;5.55;54.08;97442.69;5030258;28;20045;-46
2023/03/15 03:07:13;;;;;;;4.50;2.00;;;2.40;99.90;;;5.56;53.38;97444.34;5029740;28;20045;-46
2023/03/15 03:09:46;;;;;;;2.80;2.05;;;2.40;99.90;;;5.46;54.03;97457.50;5030529;28;20037;-52
2023/03/15 03:12:15;;;;;;;3.23;1.80;;;2.30;99.90;;;5.47;53.71;97455.75;5030720;28;20042;-46
2023/03/15 03:14:43;;;;;;;6.27;1.70;;;2.20;99.90;;;5.47;53.84;97464.47;5031273;28;20528;-47
2023/03/15 03:17:15;;;;;;;2.97;1.67;;;2.20;99.90;;;5.44;53.54;97466.56;5030286;28;20520;-46
2023/03/15 03:19:43;;;;;;;7.00;1.97;;;2.20;99.90;;;5.46;54.13;97465.44;5030884;28;20064;-50
2023/03/15 03:22:12;;;;;;;2.40;1.40;;;2.20;99.90;;;5.47;53.85;97480.31;5006546;28;20157;-48
2023/03/15 03:24:44;;;;;;;4.87;1.83;;;2.30;99.90;;;5.49;53.16;97478.38;5030430;28;20044;-49
2023/03/15 03:27:15;;;;;;;2.17;1.52;;;2.30;99.90;;;5.49;53.74;97486.31;5023582;28;20524;-46
2023/03/15 03:29:45;;;;;;;6.60;2.00;;;2.30;99.90;;;5.50;53.24;97487.97;5029750;28;20052;-47
2023/03/15 03:32:13;;;;;;;5.63;1.63;;;2.30;99.90;;;5.53;53.46;97487.72;5022087;28;20041;-49
2023/03/15 03:34:47;;;;;;;3.90;1.67;;;2.30;99.90;;;5.51;53.34;97491.47;5030514;28;20046;-49
2023/03/15 03:37:19;;;;;;;;;;;2.30;99.90;;;5.42;53.00;97493.06;5030577;28;20116;-45
2023/03/15 03:40:08;;;;;;;5.10;1.93;;;2.20;99.90;;;5.46;53.15;97504.22;5029543;28;19936;-48
2023/03/15 03:42:36;;;;;;;5.27;2.00;;;2.20;99.90;;;5.42;53.04;97506.28;5013693;28;20489;-46
2023/03/15 03:45:06;;;;;;;6.23;2.00;;;2.20;99.90;;;5.41;52.82;97504.63;5029277;28;20053;-48
2023/03/15 03:47:38;;;;;;;3.15;1.58;;;2.20;99.90;;;5.44;53.38;97508.78;5029721;28;20409;-51
2023/03/15 03:50:06;;;;;;;3.60;1.90;;;2.30;99.90;;;5.46;53.33;97510.31;5031106;28;20045;-48
2023/03/15 03:52:33;;;;;;;4.43;1.93;;;2.20;99.90;;;5.42;52.80;97510.72;5029789;28;20038;-49
2023/03/15 03:55:06;;;;;;;3.37;1.67;;;2.20;99.90;;;5.43;52.67;97520.31;5030355;28;20390;-46
2023/03/15 03:57:34;;;;;;;2.57;1.60;;;2.20;99.90;;;5.40;53.04;97518.78;5029522;28;20056;-46
2023/03/15 04:00:06;;;;;;;4.13;1.67;;;2.10;99.90;;;5.29;53.01;97522.34;5030069;28;20045;-49
2023/03/15 04:02:44;;;;;;;5.33;2.17;;;1.90;99.90;;;5.28;53.27;97528.59;5031307;28;20046;-47
2023/03/15 04:05:14;;;;;;;3.53;2.53;;;2.00;99.90;;;5.23;52.85;97535.22;5030603;28;20046;-51
2023/03/15 04:07:43;;;;;;;7.07;2.70;;;2.00;99.90;;;5.21;53.19;97527.44;5029991;28;20048;-49
2023/03/15 04:10:13;;;;;;;7.17;2.53;;;2.00;99.90;;;5.23;53.39;97533.41;5029595;28;20045;-46
2023/03/15 04:12:43;;;;;;;5.80;2.43;;;2.00;99.90;;;5.27;53.43;97541.91;5029493;28;20493;-47
2023/03/15 04:15:12;;;;;;;4.90;1.90;;;2.10;99.90;;;5.27;52.76;97542.78;5029813;28;20045;-47
2023/03/15 04:17:41;;;;;;;2.43;1.70;;;2.10;99.90;;;5.25;52.86;97549.13;5029667;28;20037;-48
2023/03/15 04:20:11;;;;;;;3.17;1.97;;;2.00;99.90;;;5.27;53.37;97544.56;5030250;28;20053;-45
2023/03/15 04:22:48;;;;;;;;;;;2.10;99.90;;;5.23;53.31;97546.59;5029674;28;20513;-45
2023/03/15 04:25:26;;;;;;;5.67;2.20;;;2.10;99.90;;;5.29;52.93;97563.72;5022932;28;19924;-51
2023/03/15 04:28:10;;;;;;;5.47;2.22;;;2.00;99.90;;;5.23;52.76;97553.69;5030562;28;20528;-45
2023/03/15 04:30:57;;;;;;;3.43;1.80;;;2.00;99.90;;;5.24;52.63;97569.41;5031422;28;20420;-45
2023/03/15 04:33:38;;;;;;;5.73;2.53;;;2.00;99.90;;;5.28;52.25;97568.19;5030114;28;20052;-48
2023/03/15 04:36:06;;;;;;;7.37;2.43;;;2.00;99.90;;;5.27;52.75;97565.66;5031139;28;20045;-46
2023/03/15 04:39:03;;;;;;;5.53;2.50;;;2.10;99.90;;;5.28;52.57;97557.63;5028554;28;20072;-50
2023/03/15 04:41:49;;;;;;;6.10;2.30;;;2.10;99.90;;;5.28;52.29;97567.34;5028387;28;20056;-47
2023/03/15 04:44:39;;;;;;;6.10;2.20;;;2.10;99.90;;;5.28;52.46;97567.34;5028988;28;20509;-46
2023/03/15 04:47:09;;;;;;;5.80;2.00;;;2.10;99.90;;;5.26;51.62;97564.00;5030339;28;20049;-47
2023/03/15 04:50:16;;;;;;;5.93;2.40;;;2.10;99.90;;;5.27;51.75;97573.59;5028009;28;20049;-47
2023/03/15 04:52:54;;;;;;;6.83;2.00;;;2.10;99.90;;;5.29;52.40;97563.72;4982039;28;20045;-50
2023/03/15 04:55:40;;;;;;;3.63;2.17;;;2.10;99.90;;;5.29;51.96;97566.38;5028138;28;20052;-47
2023/03/15 04:58:21;;;;;;;3.93;2.30;;;2.10;99.90;;;5.31;51.58;97578.50;5033033;28;20052;-51
2023/03/15 05:01:03;;;;;;;7.30;2.63;;;2.20;99.90;;;5.33;52.00;97573.06;5032857;28;20053;-45
2023/03/15 05:03:53;;;;;;;4.80;2.20;;;2.20;99.90;;;5.31;52.33;97572.34;5033899;28;20045;-45
2023/03/15 05:06:52;;;;;;;5.93;1.90;;;2.10;99.90;;;5.32;51.72;97560.84;5038312;28;20057;-45
2023/03/15 05:09:45;;;;;;;4.10;2.30;;;2.10;99.90;;;5.32;51.48;97561.66;5034366;28;20547;-45
2023/03/15 05:12:45;;;;;;;4.77;1.63;;;2.10;99.90;;;5.30;52.23;97563.59;5042725;28;20139;-47
2023/03/15 05:15:18;;;;;;;4.10;2.30;;;2.10;99.90;;;5.30;50.90;97566.25;5032626;28;20042;-49
2023/03/15 05:17:55;;;;;;;6.13;2.77;;;2.10;99.20;;;5.24;51.19;97564.13;5034418;28;20497;-49
2023/03/15 05:20:37;;;;;;;11.23;4.30;;;2.00;99.90;;;5.24;51.34;97556.22;5032298;28;20072;-49
2023/03/15 05:23:16;;;;;;;4.27;2.30;;;2.00;99.80;;;5.23;51.55;97565.09;5031874;28;20067;-46
2023/03/15 05:25:53;;;;;;;3.70;2.25;;;1.90;99.20;;;5.21;51.33;97568.84;5034940;28;20033;-46
2023/03/15 05:28:25;;;;;;;7.80;3.60;;;2.00;99.30;;;5.21;50.96;97568.84;5034836;28;20489;-45
2023/03/15 05:30:55;;;;;;;10.13;4.57;;;1.90;98.50;;;5.19;50.96;97565.50;5034568;28;20045;-46
2023/03/15 05:33:46;;;;;;;7.50;2.60;;;1.90;97.10;;;5.18;50.74;97579.66;5031967;28;20045;-49
2023/03/15 05:36:33;;;;;;;9.47;4.50;;;1.90;96.40;;;5.16;51.61;97576.28;5029304;28;20045;-46
2023/03/15 05:39:21;;;;;;;4.47;2.60;;;1.90;96.10;;;5.15;50.74;97588.66;5035205;28;20052;-45
2023/03/15 05:42:06;;;;;;;7.30;4.97;;;1.90;96.70;;;5.13;51.14;97578.22;5032160;28;20057;-49
2023/03/15 05:44:53;;;;;;;8.50;3.73;;;1.80;95.70;;;5.11;51.30;97582.78;5034569;28;20057;-47
2023/03/15 05:47:39;;;;;;;5.30;3.23;;;1.80;95.70;;;5.16;51.06;97584.22;5025824;28;20037;-46
2023/03/15 05:50:16;;;;;;;6.17;2.27;;;1.80;95.20;;;5.16;51.10;97586.84;5033397;28;20511;-47
2023/03/15 05:52:54;;;;;;;6.00;2.27;;;1.90;93.20;;;5.14;50.99;97587.00;5033120;28;20050;-49
2023/03/15 05:55:45;;;;;;;4.20;2.43;;;1.90;93.90;;;5.17;51.56;97588.53;5009322;28;20523;-47
2023/03/15 05:58:28;;;;;;;3.88;2.05;;;1.90;93.10;;;5.18;50.31;97582.31;5031809;28;20061;-47
2023/03/15 06:01:35;;;;;;;4.23;2.00;;;1.90;92.40;;;5.19;51.26;97590.06;5034562;28;20543;-47
2023/03/15 06:04:16;;;;;;;5.53;2.40;;;1.90;92.20;;;5.20;50.45;97594.41;5031880;28;20505;-47
2023/03/15 06:06:45;;;;;;;5.73;2.10;;;1.90;92.20;;;5.24;51.21;97593.16;5032583;28;20038;-48
2023/03/15 06:09:13;;;;;;;3.33;2.57;;;2.00;91.70;;;5.28;50.79;97593.75;5031229;28;20049;-51
2023/03/15 06:11:40;;;;;;;5.60;2.33;;;2.00;90.00;;;5.28;50.07;97591.94;5031558;28;20057;-42
2023/03/15 06:14:12;;;;;;;4.87;2.20;;;2.10;90.10;;;5.32;50.11;97596.00;5031602;28;20049;-42
2023/03/15 06:16:46;;;;;;;5.63;2.40;;;2.10;89.20;;;5.35;50.56;97600.19;5031282;28;20045;-44
2023/03/15 06:19:13;;;;;;;7.30;2.33;;;2.10;89.50;;;5.36;50.72;97607.13;5032569;28;20049;-44
2023/03/15 06:21:41;;;;;;;8.37;2.67;;;2.10;89.50;;;5.38;50.59;97610.47;5031281;28;20049;-43
2023/03/15 06:24:14;;;;;;;5.25;2.08;;;2.10;88.70;;;5.39;50.45;97608.66;5031139;28;20049;-43
2023/03/15 06:26:42;;;;;;;8.80;2.40;;;2.10;88.40;;;5.42;50.51;97611.06;5030505;28;20046;-44
2023/03/15 06:29:10;;;;;;;5.07;2.20;;;2.20;87.50;;;5.43;50.09;97616.22;5031117;28;20056;-43
2023/03/15 06:31:38;;;;;;;5.83;2.73;;;2.20;87.20;;;5.45;50.83;97610.81;5030469;28;20064;-47
2023/03/15 06:34:09;;;;;;;7.10;2.83;;;2.20;87.10;;;5.47;49.92;97616.81;5031118;28;20072;-44
2023/03/15 06:36:36;;;;;;;6.57;2.77;;;2.20;87.40;;;5.49;49.68;97605.13;5031059;28;20053;-44
2023/03/15 06:39:04;;;;;;;6.53;3.00;;;2.30;86.70;;;5.55;50.19;97606.41;5032207;28;20042;-41
2023/03/15 06:41:32;;;;;;;5.73;2.67;;;2.30;86.20;;;5.59;50.59;97614.91;5031202;28;20045;-44
2023/03/15 06:44:10;;;;;;;4.67;2.30;;;2.40;85.20;;;5.58;50.67;97608.78;5030876;28;20053;-42
2023/03/15 06:46:39;;;;;;;6.67;2.47;;;2.30;85.40;;;5.62;49.81;97612.88;5013604;28;20050;-45
2023/03/15 06:49:07;;;;;;;6.70;2.23;;;2.40;85.00;;;5.65;50.04;97628.44;5013880;28;20421;-42
2023/03/15 06:51:37;;;;;;;7.17;3.43;;;2.40;85.60;;;5.69;49.86;97629.84;5030787;28;20623;-42
2023/03/15 06:54:04;;;;;;;5.80;3.37;;;2.40;84.50;;;5.66;50.20;97630.13;5030316;28;20053;-42
2023/03/15 06:56:36;;;;;;;8.40;4.73;;;2.40;84.10;;;5.70;49.76;97636.81;5030448;28;20041;-41
2023/03/15 06:59:04;;;;;;;8.30;3.93;;;2.40;84.20;;;5.76;50.10;97627.53;5032013;28;20056;-42
2023/03/15 07:01:32;;;;;;;7.63;3.70;;;2.50;85.30;;;5.77;49.79;97625.72;5031581;28;20524;-41
2023/03/15 07:03:59;;;;;;;6.60;2.57;;;2.50;84.60;;;5.80;49.65;97630.75;5031787;28;20524;-41
2023/03/15 07:06:28;;;;;;;10.53;2.60;;;2.50;84.50;;;5.82;49.93;97626.16;5031782;28;20045;-41
2023/03/15 07:08:55;;;;;;;8.97;3.00;;;2.60;84.20;;;5.85;49.20;97625.88;5031507;28;20046;-41
2023/03/15 07:11:23;;;;;;;10.77;2.90;;;2.60;84.00;;;5.85;49.57;97629.34;5031525;28;20390;-42
2023/03/15 07:13:50;;;;;;;4.93;2.77;;;2.60;83.40;;;5.89;49.28;97635.22;5030727;28;20049;-43
2023/03/15 07:16:18;;;;;;;6.73;3.17;;;2.70;83.90;;;5.90;49.88;97635.09;5029183;28;20064;-43
2023/03/15 07:18:45;;;;;;;6.33;2.03;;;2.70;83.00;;;5.93;49.41;97652.47;5031014;28;20045;-44
2023/03/15 07:21:13;;;;;;;6.23;2.00;;;2.70;82.80;;;5.99;49.95;97649.38;5031406;28;20049;-44
2023/03/15 07:23:41;;;;;;;10.27;2.87;;;2.80;82.50;;;6.02;49.65;97642.97;5031507;28;20048;-43
2023/03/15 07:26:08;;;;;;;3.53;2.00;;;2.80;81.70;;;6.04;49.34;97652.44;5031533;28;20421;-42
2023/03/15 07:28:36;;;;;;;5.60;2.20;;;2.80;81.00;;;6.06;49.21;97658.41;5031120;28;20409;-42
2023/03/15 07:31:05;;;;;;;6.80;2.87;;;2.90;80.90;;;6.11;49.04;97663.31;5031386;28;20041;-44
2023/03/15 07:33:35;;;;;;;6.50;2.53;;;2.90;81.30;;;6.16;48.96;97650.53;5030249;28;20056;-44
2023/03/15 07:36:05;;;;;;;5.67;2.33;;;2.90;80.20;;;6.23;49.22;97656.13;5031276;28;20049;-46
2023/03/15 07:38:34;;;;;;;8.20;2.83;;;3.00;80.30;;;6.26;48.85;97658.50;5030993;28;20041;-42
2023/03/15 07:41:04;;;;;;;7.87;2.00;;;3.00;79.50;;;6.28;48.81;97660.06;5030139;28;20527;-42
2023/03/15 07:43:32;;;;;;;5.03;2.20;;;3.10;79.70;;;6.31;48.89;97662.41;5028443;28;20049;-44
2023/03/15 07:46:12;;;;;;;8.20;2.43;;;3.10;78.30;;;6.34;49.29;97663.13;5029398;28;20045;-47
2023/03/15 07:48:40;;;;;;;5.03;2.00;;;3.20;78.60;;;6.38;48.79;97664.50;5029951;28;20041;-47
2023/03/15 07:51:07;;;;;;;5.60;2.23;;;3.20;78.30;;;6.41;48.87;97661.63;5031163;28;20045;-42
2023/03/15 07:53:35;;;;;;;4.80;1.70;;;3.20;78.20;;;6.42;48.94;97665.94;5030833;28;20044;-47
2023/03/15 07:56:03;;;;;;;5.10;2.23;;;3.20;78.40;;;6.48;48.78;97668.88;5031008;28;20049;-47
2023/03/15 07:58:31;;;;;;;6.53;2.00;;;3.30;77.90;;;6.53;48.39;97671.09;5030663;28;20042;-44
2023/03/15 08:00:58;;;;;;;6.57;2.03;;;3.30;77.50;;;6.55;48.67;97665.69;5030810;28;20049;-44
2023/03/15 08:03:26;;;;;;;5.83;1.83;;;3.30;77.70;;;6.61;48.21;97667.78;5030029;28;20045;-45
2023/03/15 08:05:54;;;;;;;5.57;1.70;;;3.40;77.00;;;6.65;48.37;97672.69;5027903;28;20052;-43
2023/03/15 08:08:23;;;;;;;7.57;2.00;;;3.40;74.20;;;6.71;47.67;97666.03;5029805;28;20421;-46
2023/03/15 08:10:51;;;;;;;9.80;3.40;;;3.50;75.10;;;6.78;47.95;97663.66;5029667;28;20497;-43
2023/03/15 08:13:18;;;;;;;5.07;2.67;;;3.60;74.80;;;6.82;47.86;97671.16;5030760;28;20053;-45
2023/03/15 08:15:46;;;;;;;5.17;3.30;;;3.70;72.90;;;6.92;47.50;97665.06;5030682;28;20045;-43
2023/03/15 08:18:14;;;;;;;4.23;1.60;;;3.80;72.80;;;6.94;47.26;97661.31;5031098;28;20053;-48
2023/03/15 08:20:41;;;;;;;2.70;1.40;;;3.80;71.90;;;7.00;46.81;97666.06;5030977;28;20044;-43
2023/03/15 08:23:15;;;;;;;2.47;1.70;;;3.90;69.90;;;6.98;46.61;97665.34;5029259;28;20050;-47
2023/03/15 08:25:44;;;;;;;4.20;1.65;;;3.90;68.00;;;7.04;45.63;97661.31;5029772;28;20034;-43
2023/03/15 08:28:11;;;;;;;3.23;1.10;;;4.00;67.50;;;7.11;45.76;97662.41;5030447;28;20045;-45
2023/03/15 08:30:39;;;;;;;3.37;1.70;;;4.10;68.60;;;7.22;45.99;97661.47;5032754;28;20056;-47
2023/03/15 08:33:07;;;;;;;2.43;1.20;;;4.20;69.10;;;7.34;45.86;97675.41;5033115;28;20045;-44
2023/03/15 08:35:35;;;;;;;9.60;2.07;;;4.20;68.60;;;7.39;45.83;97683.75;5034582;28;20046;-48
2023/03/15 08:38:03;;;;;;;5.47;2.00;;;4.30;68.80;;;7.46;45.69;97682.22;5032987;28;20049;-44
2023/03/15 08:40:30;;;;;;;5.80;1.90;;;4.40;67.80;;;7.59;45.68;97687.22;5026503;28;20105;-45
2023/03/15 08:42:58;;;;;;;7.17;1.70;;;4.40;68.30;;;7.62;45.56;97685.13;5024222;28;20488;-43
2023/03/15 08:45:26;;;;;;;2.57;1.57;;;4.50;67.80;;;7.70;45.50;97687.06;5019741;28;20033;-44
2023/03/15 08:47:58;;;;;;;5.63;1.80;;;4.60;67.80;;;7.79;45.24;97690.66;5025323;28;20053;-43
2023/03/15 08:50:30;;;;;;;4.10;1.50;;;4.60;66.50;;;7.87;44.87;97693.44;5043956;28;20061;-43
2023/03/15 08:52:58;;;;;;;7.67;1.40;;;4.70;65.20;;;7.93;44.79;97695.53;5027818;28;20441;-44
2023/03/15 08:55:25;;;;;;;4.43;2.20;;;4.70;65.50;;;7.98;45.03;97695.94;5028215;28;20441;-44
2023/03/15 08:57:53;;;;;;;6.63;1.80;;;4.80;65.90;;;8.05;44.87;97694.38;5028557;28;20056;-43
2023/03/15 09:00:24;;;;;;;4.27;1.87;;;4.90;66.20;;;8.05;44.11;97702.34;5028715;28;20505;-47
2023/03/15 09:02:52;;;;;;;5.80;1.63;;;4.90;65.30;;;8.07;43.73;97697.72;5028493;28;20052;-46
2023/03/15 09:05:21;;;;;;;5.53;1.67;;;4.90;62.50;;;8.10;43.71;97699.25;5043615;28;20509;-44
2023/03/15 09:07:51;;;;;;;3.50;1.37;;;4.90;63.20;;;8.13;43.63;97703.44;5043338;28;20535;-43
2023/03/15 09:10:20;;;;;;;6.57;2.30;;;4.90;62.90;;;8.15;43.48;97702.31;5042809;28;20052;-44
2023/03/15 09:12:52;;;;;;;3.80;1.60;;;5.00;63.40;;;8.24;43.89;97709.41;5026653;28;20507;-44
2023/03/15 09:15:20;;;;;;;3.67;1.70;;;5.10;64.70;;;8.36;44.15;97719.84;5026146;28;20045;-44
2023/03/15 09:17:52;;;;;;;6.63;2.20;;;5.20;64.50;;;8.46;43.69;97715.34;5042995;28;20053;-44
2023/03/15 09:20:21;;;;;;;3.23;1.50;;;5.30;64.60;;;8.61;43.48;97731.63;5042880;28;20041;-45
2023/03/15 09:22:52;;;;;;;6.83;1.53;;;5.40;62.70;;;8.70;43.25;97721.94;5025928;28;20493;-43
2023/03/15 09:25:21;;;;;;;2.30;1.20;;;5.50;62.70;;;8.75;42.77;97723.19;5036395;28;20041;-45
2023/03/15 09:27:48;;;;;;;2.20;1.40;;;5.50;59.30;;;8.81;42.73;97727.88;5038662;28;20052;-45
2023/03/15 09:30:16;;;;;;;6.77;1.67;;;5.60;62.50;;;8.87;42.56;97721.97;5026618;28;20045;-44
2023/03/15 09:32:44;;;;;;;3.70;1.27;;;5.60;61.90;;;8.94;42.58;97724.91;5026258;28;20037;-45
2023/03/15 09:35:16;;;;;;;4.20;1.23;;;5.60;62.00;;;8.92;41.97;97729.53;5027756;28;20052;-43
2023/03/15 09:37:45;;;;;;;4.13;1.30;;;5.70;60.80;;;9.01;42.20;97727.78;5027164;28;20041;-44
2023/03/15 09:40:38;;;;;;;5.87;1.40;;;5.60;58.40;;;9.06;42.52;97721.03;5042331;28;20056;-47
2023/03/15 09:43:05;;;;;;;4.27;1.50;;;5.80;59.10;;;9.19;41.98;97731.31;5025785;28;20038;-44
2023/03/15 09:46:21;;;;;;;5.77;1.40;;;5.90;60.80;;;9.26;42.20;97726.22;5019651;28;20049;-45
2023/03/15 09:49:20;;;;;;;9.37;3.23;;;6.00;58.80;;;9.24;39.24;97723.69;5016442;28;20038;-44
2023/03/15 09:52:05;;;;;;;3.57;1.43;;;6.00;52.10;;;9.22;40.15;97725.69;5011478;28;20049;-42
2023/03/15 09:54:43;;;;;;;2.20;1.17;;;6.10;54.90;;;9.37;39.85;97725.16;5028555;28;20050;-45
2023/03/15 09:57:21;;;;;;;4.80;1.20;;;6.20;53.80;;;9.49;39.47;97723.13;5041893;28;20303;-43
2023/03/15 09:59:53;;;;;;;5.03;1.07;;;6.40;53.40;;;9.58;38.96;97725.69;5036070;28;20045;-45
2023/03/15 10:02:27;;;;;;;2.17;1.10;;;6.50;53.60;;;9.56;38.73;97722.34;5040244;28;20060;-45
2023/03/15 10:05:06;;;;;;;;;;;6.50;52.80;;;9.60;37.97;97721.06;5042303;28;20045;-44
2023/03/15 10:07:34;;;;;;;2.03;0.83;;;6.40;47.80;;;9.69;38.29;97724.59;5024487;28;20308;-44
2023/03/15 10:10:05;;;;;;;1.63;1.10;;;6.50;52.70;;;9.56;37.78;97724.19;5026309;28;20049;-45
2023/03/15 10:12:41;;;;;;;2.90;1.20;;;6.40;51.20;;;9.64;38.19;97725.06;5023374;28;20049;-45
2023/03/15 10:15:38;;;;;;;4.03;1.27;;;6.50;51.50;;;9.59;38.09;97723.84;5041245;28;20054;-46
2023/03/15 10:18:26;;;;;;;4.03;1.33;;;6.40;51.20;;;9.45;37.21;97730.56;5025093;28;20053;-46
2023/03/15 10:21:04;;;;;;;3.70;1.53;;;6.30;50.40;;;9.51;37.34;97729.09;5040189;28;20509;-45
2023/03/15 10:23:52;;;;;;;3.30;1.20;;;6.30;51.10;;;9.45;37.59;97715.44;5041536;28;20056;-42
2023/03/15 10:26:33;;;;;;;4.20;1.20;;;6.30;50.10;;;9.53;37.22;97712.00;5042571;28;20056;-43
2023/03/15 10:29:09;;;;;;;1.97;1.10;;;6.40;50.60;;;9.66;37.61;97711.63;5040002;28;20072;-44
2023/03/15 10:31:40;;;;;;;4.43;1.23;;;6.50;52.20;;;9.92;38.19;97711.66;5037228;28;20107;-46
2023/03/15 10:34:13;;;;;;;4.27;1.20;;;6.80;53.20;;;10.07;37.41;97716.41;5043750;28;20460;-45
2023/03/15 10:36:48;;;;;;;3.37;1.73;;;6.90;48.70;;;9.74;36.11;97714.34;5030962;28;20045;-44
2023/03/15 10:39:16;;;;;;;5.17;2.33;;;6.70;47.40;;;9.76;36.01;97716.88;5031020;28;20046;-49
2023/03/15 10:41:47;;;;;;;4.87;1.03;;;6.70;48.20;;;9.73;36.33;97715.34;5031895;28;20045;-42
2023/03/15 10:44:25;;;;;;;2.60;1.13;;;6.60;48.50;;;9.75;36.88;97726.66;5028708;28;20412;-45
2023/03/15 10:47:18;;;;;;;2.23;0.70;;;6.70;50.20;;;9.80;37.05;97721.72;5029846;28;20045;-45
2023/03/15 10:49:58;;;;;;;3.23;1.23;;;6.70;49.80;;;9.95;37.04;97731.81;5025043;28;20048;-44
2023/03/15 10:52:30;;;;;;;4.37;1.03;;;6.80;50.20;;;9.84;36.22;97730.22;5030124;28;20192;-45
2023/03/15 10:55:27;;;;;;;2.63;1.00;;;6.70;47.30;;;9.56;35.39;97725.00;5032168;28;20049;-47
2023/03/15 10:58:13;;;;;;;3.63;1.63;;;6.60;48.40;;;9.66;35.86;97723.09;5025953;28;20049;-47
2023/03/15 11:00:50;;;;;;;4.67;1.10;;;6.50;48.30;;;9.75;36.62;97724.00;5031194;28;20048;-48